Ashton, KS

10:35 PM CDT on March 26, 2015 (GMT -0500)
Strother | | Change Station
CLOSE
Current Station
Airport
Location: Winfield,
Elevation: 1158 ft
Nearby Weather Stations

Elev 1158 ft 37.17 °N, 97.04 °W | Updated 41 minutes ago

Clear
Clear
43 °F
Feels Like 40 °F
N
5
Wind Variable Wind from South

Today
High -- | Low -- °F
--% Chance of Precip.
Yesterday
High -- | Low -- °F
Precip. -- in
7:23 AM 7:45 PM
Waxing Crescent, 48% visible
Pressure 30.05 in
Visibility 10.0 miles
Clouds Few 9000 ft
Windchill 40 °F
Dew Point 32 °F
Humidity 65%
Rainfall 0.00 in
Snow Depth Not available.
UV 0 out of 12
Pollen 7.40 out of 12
Air Quality Not available.
Flu Activity Not available.
METAR KWLD 270254Z AUTO 18004KT 10SM FEW090 06/00 A3004 RMK AO2 SLP175 T00610000 56015

More Conditions Fewer Conditions

Pressure 30.05 in
Visibility 10.0 miles
Clouds Few 9000 ft
Windchill 40 °F
Dew Point 32 °F
Humidity 65%
Rainfall 0.00 in
Snow Depth Not available.
UV 0 out of 12
Pollen 7.40 out of 12
Air Quality Not available.
Flu Activity Not available.
METAR KWLD 270254Z AUTO 18004KT 10SM FEW090 06/00 A3004 RMK AO2 SLP175 T00610000 56015

More Conditions Fewer Conditions

10-Day Weather Forecast

Almanac

Astronomy

Mar. 26, 2015 Rise Set
Actual Time
Civil Twilight
Nautical Twilight
Astronomical Twilight
Moon
Length of Visible Light
Length of Day
Tomorrow will be .
, % of the Moon is Illuminated

Today's Extremes

State Highs State Lows

Community

WunderPhotos

Upload Photos

1,808,697 photos uploaded!

WunderBlogs® & News

Nearby

Air Quality

  Air Quality AQ Index Pollutant
Not available.

Snow Depth

Station Depth Elevation

Earthquake Activity

City Distance Mag. Time & Date
Minimum magnitude displayed is 2.5.

Coastal Water Temperatures

Place Temperature

Stations

Nearby Weather Stations

Station Location Temp. Windchill Dew Point Humidity Wind Precip. Elev Updated Type